createdAt,value
2019-04-27T00:00:10.027Z,6.10
2019-04-27T00:02:40.116Z,6.10
2019-04-27T00:05:10.415Z,6.10
2019-04-27T00:07:40.506Z,6.00
2019-04-27T00:10:10.822Z,6.10
2019-04-27T00:12:39.326Z,6.10
2019-04-27T00:15:09.467Z,6.10
2019-04-27T00:17:49.599Z,6.10
2019-04-27T00:20:22.335Z,6.10
2019-04-27T00:22:53.550Z,6.00
2019-04-27T00:25:23.003Z,6.00
2019-04-27T00:27:51.515Z,5.90
2019-04-27T00:30:20.107Z,5.90
2019-04-27T00:32:48.710Z,5.90
2019-04-27T00:35:18.838Z,5.90
2019-04-27T00:37:54.691Z,5.90
2019-04-27T00:40:36.777Z,5.90
2019-04-27T00:43:05.219Z,5.90
2019-04-27T00:45:33.637Z,5.90
2019-04-27T00:48:03.503Z,5.90
2019-04-27T00:50:33.648Z,5.90
2019-04-27T00:53:03.404Z,5.90
2019-04-27T00:55:34.350Z,5.90
2019-04-27T00:58:10.499Z,5.90
2019-04-27T01:00:55.367Z,5.90
2019-04-27T01:03:25.927Z,5.90
2019-04-27T01:05:54.538Z,5.90
2019-04-27T01:08:23.063Z,5.90
2019-04-27T01:10:51.483Z,5.90
2019-04-27T01:13:19.927Z,5.90
2019-04-27T01:15:48.354Z,5.80
2019-04-27T01:18:16.872Z,5.80
2019-04-27T01:20:45.302Z,5.80
2019-04-27T01:23:13.726Z,5.80
2019-04-27T01:25:46.391Z,5.70
2019-04-27T01:28:20.650Z,5.70
2019-04-27T01:30:54.042Z,5.70
2019-04-27T01:33:22.538Z,5.70
2019-04-27T01:35:50.994Z,5.80
2019-04-27T01:38:19.482Z,5.70
2019-04-27T01:40:49.704Z,5.70
2019-04-27T01:43:18.683Z,5.70
2019-04-27T01:45:48.812Z,5.70
2019-04-27T01:48:23.666Z,5.70
2019-04-27T01:50:49.165Z,5.70
2019-04-27T01:53:19.040Z,5.70
2019-04-27T01:55:49.125Z,5.60
2019-04-27T01:58:20.135Z,5.60
2019-04-27T02:01:06.507Z,5.60
2019-04-27T02:03:36.635Z,5.60
2019-04-27T02:06:05.488Z,5.60
2019-04-27T02:08:33.907Z,5.60
2019-04-27T02:11:02.357Z,5.60
2019-04-27T02:13:30.766Z,5.60
2019-04-27T02:15:59.210Z,5.60
2019-04-27T02:18:35.608Z,5.60
2019-04-27T02:20:59.159Z,5.60
2019-04-27T02:23:29.236Z,5.60
2019-04-27T02:25:58.584Z,5.60
2019-04-27T02:28:44.204Z,5.70
2019-04-27T02:31:30.504Z,5.70
2019-04-27T02:34:03.331Z,5.70
2019-04-27T02:36:31.758Z,5.70
2019-04-27T02:39:00.239Z,5.70
2019-04-27T02:41:29.726Z,5.70
2019-04-27T02:44:01.761Z,5.70
2019-04-27T02:46:31.585Z,5.60
2019-04-27T02:49:06.084Z,5.60
2019-04-27T02:51:34.873Z,5.60
2019-04-27T02:54:03.305Z,5.50
2019-04-27T02:56:31.744Z,5.50
2019-04-27T02:59:00.168Z,5.50
2019-04-27T03:01:30.777Z,5.50
2019-04-27T03:04:00.297Z,5.50
2019-04-27T03:06:29.964Z,5.40
2019-04-27T03:09:00.824Z,5.40
2019-04-27T03:11:31.022Z,5.30
2019-04-27T03:14:04.326Z,5.20
2019-04-27T03:16:52.358Z,5.20
2019-04-27T03:19:34.669Z,5.10
2019-04-27T03:22:09.758Z,5.10
2019-04-27T03:24:55.968Z,5.00
2019-04-27T03:27:26.120Z,5.00
2019-04-27T03:29:54.598Z,4.90
2019-04-27T03:32:23.474Z,4.80
2019-04-27T03:34:52.783Z,4.80
2019-04-27T03:37:21.521Z,4.80
2019-04-27T03:39:50.108Z,4.70
2019-04-27T03:42:20.710Z,4.60
2019-04-27T03:44:50.290Z,4.60
2019-04-27T03:47:19.808Z,4.60
2019-04-27T03:49:50.694Z,4.50
2019-04-27T03:52:29.990Z,4.50
2019-04-27T03:55:06.815Z,4.40
2019-04-27T03:57:36.879Z,4.30
2019-04-27T04:00:10.488Z,4.30
2019-04-27T04:02:40.557Z,4.30
2019-04-27T04:05:09.792Z,4.30
2019-04-27T04:07:40.183Z,4.20
2019-04-27T04:10:10.758Z,4.20
2019-04-27T04:12:56.043Z,4.10
2019-04-27T04:15:24.664Z,4.00
2019-04-27T04:17:53.091Z,4.00
2019-04-27T04:20:23.208Z,4.00
2019-04-27T04:22:51.671Z,3.90
2019-04-27T04:25:20.131Z,3.90
2019-04-27T04:27:50.663Z,3.90
2019-04-27T04:30:20.016Z,3.80
2019-04-27T04:32:51.599Z,3.80
2019-04-27T04:35:25.426Z,3.70
2019-04-27T04:37:53.935Z,3.70
2019-04-27T04:40:27.204Z,3.70
2019-04-27T04:42:57.279Z,3.70
2019-04-27T04:45:27.357Z,3.70
2019-04-27T04:47:59.497Z,3.70
2019-04-27T04:50:30.242Z,3.70
2019-04-27T04:52:59.849Z,3.70
2019-04-27T04:55:30.350Z,3.70
2019-04-27T04:57:59.111Z,3.70
2019-04-27T05:00:29.647Z,3.70
2019-04-27T05:02:59.444Z,3.70
2019-04-27T05:05:29.334Z,3.70
2019-04-27T05:07:58.751Z,3.80
2019-04-27T05:10:28.849Z,3.80
2019-04-27T05:12:59.034Z,3.90
2019-04-27T05:15:29.193Z,3.80
2019-04-27T05:17:59.110Z,3.90
2019-04-27T05:20:41.395Z,3.90
2019-04-27T05:23:09.820Z,4.00
2019-04-27T05:25:39.036Z,3.90
2019-04-27T05:28:09.745Z,3.90
2019-04-27T05:30:39.078Z,4.00
2019-04-27T05:33:08.979Z,4.00
2019-04-27T05:35:38.751Z,4.10
2019-04-27T05:38:11.011Z,4.10
2019-04-27T05:40:39.888Z,4.10
2019-04-27T05:43:09.446Z,4.20
2019-04-27T05:45:57.737Z,4.20
2019-04-27T05:48:32.186Z,4.20
2019-04-27T05:51:02.043Z,4.10
2019-04-27T05:53:30.630Z,4.20
2019-04-27T05:55:59.514Z,4.20
2019-04-27T05:58:28.906Z,4.30
2019-04-27T06:00:59.272Z,4.50
2019-04-27T06:03:29.621Z,4.60
2019-04-27T06:06:01.396Z,4.90
2019-04-27T06:08:29.486Z,5.10
2019-04-27T06:10:59.224Z,5.20
2019-04-27T06:13:30.690Z,5.30
2019-04-27T06:15:59.226Z,5.60
2019-04-27T06:18:29.422Z,5.70
2019-04-27T06:20:59.668Z,6.10
2019-04-27T06:23:28.923Z,6.30
2019-04-27T06:25:57.853Z,6.30
2019-04-27T06:28:26.500Z,6.20
2019-04-27T06:30:54.913Z,6.20
2019-04-27T06:33:32.095Z,6.20
2019-04-27T06:35:53.499Z,6.20
2019-04-27T06:38:21.940Z,6.20
2019-04-27T06:40:50.351Z,6.20
2019-04-27T06:43:19.002Z,6.50
2019-04-27T06:45:48.802Z,7.00
2019-04-27T06:48:19.307Z,7.20
2019-04-27T06:50:49.003Z,7.40
2019-04-27T06:53:19.180Z,7.70
2019-04-27T06:55:49.672Z,8.10
2019-04-27T06:58:19.989Z,8.50
2019-04-27T07:00:49.703Z,8.40
2019-04-27T07:03:18.883Z,8.80
2019-04-27T07:05:48.697Z,9.10
2019-04-27T07:08:18.652Z,9.50
2019-04-27T07:10:48.989Z,9.70
2019-04-27T07:13:19.438Z,9.60
2019-04-27T07:15:48.533Z,10.20
2019-04-27T07:18:18.651Z,10.50
2019-04-27T07:20:48.497Z,10.50
2019-04-27T07:23:18.711Z,11.00
2019-04-27T07:25:48.764Z,11.30
2019-04-27T07:28:18.945Z,11.70
2019-04-27T07:30:48.752Z,12.10
2019-04-27T07:33:18.594Z,12.30
2019-04-27T07:35:48.964Z,12.60
2019-04-27T07:38:19.096Z,12.60
2019-04-27T07:40:48.884Z,12.40
2019-04-27T07:43:24.874Z,12.80
2019-04-27T07:45:53.330Z,13.20
2019-04-27T07:48:21.762Z,13.60
2019-04-27T07:50:50.221Z,14.00
2019-04-27T07:53:19.322Z,13.80
2019-04-27T07:55:49.506Z,13.20
2019-04-27T07:58:21.925Z,13.60
2019-04-27T08:00:49.167Z,14.10
2019-04-27T08:03:19.528Z,14.20
2019-04-27T08:05:49.082Z,14.70
2019-04-27T08:08:18.976Z,13.90
2019-04-27T08:10:50.065Z,13.40
2019-04-27T08:13:19.388Z,13.40
2019-04-27T08:15:49.602Z,13.20
2019-04-27T08:18:18.964Z,13.20
2019-04-27T08:20:49.121Z,12.90
2019-04-27T08:23:19.435Z,13.50
2019-04-27T08:25:49.675Z,13.80
2019-04-27T08:28:38.659Z,13.80
2019-04-27T08:31:11.757Z,13.60
2019-04-27T08:33:40.171Z,13.20
2019-04-27T08:36:09.045Z,12.60
2019-04-27T08:38:38.939Z,12.30
2019-04-27T08:41:08.990Z,12.10
2019-04-27T08:43:39.031Z,11.80
2019-04-27T08:46:08.768Z,11.70
2019-04-27T08:48:39.331Z,11.60
2019-04-27T08:51:09.423Z,11.70
2019-04-27T08:53:39.620Z,12.10
2019-04-27T08:56:09.347Z,13.30
2019-04-27T08:58:38.610Z,13.60
2019-04-27T09:01:10.031Z,13.90
2019-04-27T09:03:37.395Z,14.80
2019-04-27T09:06:09.078Z,15.10
2019-04-27T09:08:41.248Z,15.20
2019-04-27T09:11:13.818Z,14.90
2019-04-27T09:13:46.330Z,14.30
2019-04-27T09:16:18.824Z,13.60
2019-04-27T09:18:49.842Z,13.20
2019-04-27T09:21:19.168Z,13.10
2019-04-27T09:23:48.901Z,13.30
2019-04-27T09:26:18.587Z,13.10
2019-04-27T09:28:49.174Z,12.90
2019-04-27T09:31:17.435Z,12.80
2019-04-27T09:33:45.883Z,12.60
2019-04-27T09:36:14.311Z,12.60
2019-04-27T09:38:42.795Z,12.70
2019-04-27T09:41:11.227Z,12.60
2019-04-27T09:43:39.706Z,12.50
2019-04-27T09:46:08.162Z,12.70
2019-04-27T09:48:36.617Z,12.70
2019-04-27T09:51:06.470Z,12.70
2019-04-27T09:53:36.429Z,12.90
2019-04-27T09:56:05.848Z,13.30
2019-04-27T09:58:36.501Z,13.30
2019-04-27T10:01:06.499Z,13.40
2019-04-27T10:03:36.025Z,13.30
2019-04-27T10:06:05.928Z,13.50
2019-04-27T10:08:36.548Z,13.90
2019-04-27T10:11:05.981Z,13.50
2019-04-27T10:13:36.229Z,13.20
2019-04-27T10:16:05.344Z,13.10
2019-04-27T10:18:34.019Z,12.60
2019-04-27T10:21:02.457Z,12.40
2019-04-27T10:23:30.972Z,12.10
2019-04-27T10:25:59.490Z,11.90
2019-04-27T10:28:27.931Z,11.80
2019-04-27T10:30:56.354Z,11.70
2019-04-27T10:33:25.894Z,11.40
2019-04-27T10:35:56.290Z,11.10
2019-04-27T10:38:25.883Z,11.00
2019-04-27T10:40:54.694Z,10.70
2019-04-27T10:43:23.207Z,10.60
2019-04-27T10:45:51.665Z,10.70
2019-04-27T10:48:20.183Z,10.70
2019-04-27T10:50:48.626Z,10.80
2019-04-27T10:53:17.168Z,10.80
2019-04-27T10:55:46.447Z,10.70
2019-04-27T10:58:16.770Z,10.60
2019-04-27T11:00:46.951Z,10.50
2019-04-27T11:03:17.070Z,10.30
2019-04-27T11:05:47.215Z,10.20
2019-04-27T11:08:16.733Z,10.10
2019-04-27T11:10:46.155Z,9.90
2019-04-27T11:13:16.447Z,9.80
2019-04-27T11:15:46.120Z,9.90
2019-04-27T11:18:16.529Z,9.80
2019-04-27T11:20:46.862Z,10.10
2019-04-27T11:23:16.424Z,10.30
2019-04-27T11:25:46.638Z,10.70
2019-04-27T11:28:15.707Z,11.00
2019-04-27T11:30:44.234Z,11.70
2019-04-27T11:33:12.754Z,11.90
2019-04-27T11:35:48.719Z,12.80
2019-04-27T11:38:17.150Z,13.30
2019-04-27T11:40:46.615Z,13.60
2019-04-27T11:43:16.838Z,13.80
2019-04-27T11:45:45.829Z,13.40
2019-04-27T11:48:16.168Z,12.90
2019-04-27T11:50:45.889Z,12.50
2019-04-27T11:53:22.354Z,12.20
2019-04-27T11:55:47.030Z,12.20
2019-04-27T11:58:16.459Z,12.40
2019-04-27T12:00:45.155Z,12.50
2019-04-27T12:03:13.712Z,12.60
2019-04-27T12:05:42.249Z,12.60
2019-04-27T12:08:10.779Z,12.50
2019-04-27T12:10:39.210Z,12.60
2019-04-27T12:13:07.807Z,12.60
2019-04-27T12:15:36.318Z,12.30
2019-04-27T12:18:08.971Z,12.10
2019-04-27T12:20:35.882Z,11.90
2019-04-27T12:23:06.333Z,12.00
2019-04-27T12:25:36.997Z,12.10
2019-04-27T12:28:13.095Z,12.10
2019-04-27T12:30:52.345Z,12.10
2019-04-27T12:33:20.803Z,12.20
2019-04-27T12:35:49.280Z,12.30
2019-04-27T12:38:18.106Z,12.20
2019-04-27T12:40:46.655Z,12.20
2019-04-27T12:43:15.230Z,12.30
2019-04-27T12:45:45.464Z,12.50
2019-04-27T12:48:13.989Z,12.40
2019-04-27T12:50:42.723Z,12.60
2019-04-27T12:53:30.980Z,13.00
2019-04-27T12:56:09.825Z,13.20
2019-04-27T12:58:39.985Z,13.40
2019-04-27T13:01:12.664Z,13.20
2019-04-27T13:03:41.158Z,13.30
2019-04-27T13:06:09.602Z,13.40
2019-04-27T13:08:38.050Z,13.60
2019-04-27T13:11:06.479Z,13.70
2019-04-27T13:13:36.704Z,13.80
2019-04-27T13:16:06.525Z,13.40
2019-04-27T13:18:36.106Z,13.20
2019-04-27T13:21:04.815Z,12.90
2019-04-27T13:23:33.364Z,12.60
2019-04-27T13:26:01.851Z,12.40
2019-04-27T13:28:30.368Z,12.20
2019-04-27T13:30:58.779Z,12.10
2019-04-27T13:33:27.243Z,11.90
2019-04-27T13:35:55.671Z,11.90
2019-04-27T13:38:26.731Z,12.00
2019-04-27T13:41:08.150Z,12.20
2019-04-27T13:43:39.011Z,12.60
2019-04-27T13:46:09.835Z,13.50
2019-04-27T13:48:56.334Z,13.80
2019-04-27T13:51:32.516Z,13.30
2019-04-27T13:54:01.054Z,13.30
2019-04-27T13:56:29.538Z,13.40
2019-04-27T13:58:58.426Z,13.30
2019-04-27T14:01:26.983Z,14.10
2019-04-27T14:03:55.875Z,13.80
2019-04-27T14:06:24.317Z,13.40
2019-04-27T14:08:52.740Z,13.10
2019-04-27T14:11:21.258Z,13.10
2019-04-27T14:13:49.707Z,12.80
2019-04-27T14:16:19.016Z,12.60
2019-04-27T14:18:48.142Z,12.30
2019-04-27T14:21:16.641Z,12.20
2019-04-27T14:23:45.150Z,12.20
2019-04-27T14:26:13.614Z,12.20
2019-04-27T14:28:42.043Z,12.10
2019-04-27T14:31:10.515Z,12.10
2019-04-27T14:33:39.797Z,12.20
2019-04-27T14:36:08.405Z,12.20
2019-04-27T14:38:36.959Z,12.20
2019-04-27T14:41:05.802Z,12.20
2019-04-27T14:43:34.270Z,12.00
2019-04-27T14:46:02.778Z,11.90
2019-04-27T14:48:31.250Z,11.80
2019-04-27T14:50:59.789Z,11.90
2019-04-27T14:53:28.393Z,11.90
2019-04-27T14:55:58.448Z,12.00
2019-04-27T14:58:28.542Z,12.10
2019-04-27T15:00:58.519Z,12.20
2019-04-27T15:03:27.272Z,12.10
2019-04-27T15:05:56.076Z,12.10
2019-04-27T15:08:25.570Z,12.00
2019-04-27T15:10:54.304Z,11.80
2019-04-27T15:13:22.773Z,11.80
2019-04-27T15:15:51.288Z,11.70
2019-04-27T15:18:20.042Z,11.60
2019-04-27T15:20:48.530Z,11.60
2019-04-27T15:23:16.992Z,11.50
2019-04-27T15:25:47.017Z,11.40
2019-04-27T15:28:17.412Z,11.40
2019-04-27T15:30:50.906Z,11.30
2019-04-27T15:33:33.007Z,11.20
2019-04-27T15:36:03.083Z,11.00
2019-04-27T15:38:43.024Z,10.90
2019-04-27T15:41:14.009Z,10.90
2019-04-27T15:43:44.226Z,10.80
2019-04-27T15:46:12.830Z,10.80
2019-04-27T15:48:41.386Z,10.70
2019-04-27T15:51:17.488Z,10.70
2019-04-27T15:53:41.596Z,10.80
2019-04-27T15:56:10.289Z,10.80
2019-04-27T15:58:38.723Z,8.70
2019-04-27T16:01:11.241Z,7.20
2019-04-27T16:03:38.948Z,6.80
2019-04-27T16:06:11.654Z,6.60
2019-04-27T16:08:44.779Z,6.50
2019-04-27T16:11:15.354Z,6.50
2019-04-27T16:13:38.404Z,6.60
2019-04-27T16:16:08.458Z,6.50
2019-04-27T16:18:38.843Z,6.50
2019-04-27T16:21:10.678Z,6.60
2019-04-27T16:23:42.911Z,6.60
2019-04-27T16:26:10.929Z,6.70
2019-04-27T16:28:38.234Z,6.70
2019-04-27T16:31:06.718Z,6.50
2019-04-27T16:33:35.263Z,6.30
2019-04-27T16:36:06.833Z,6.20
2019-04-27T16:38:35.683Z,6.10
2019-04-27T16:41:04.306Z,6.20
2019-04-27T16:43:33.037Z,6.20
2019-04-27T16:46:04.189Z,6.30
2019-04-27T16:48:34.853Z,6.40
2019-04-27T16:51:03.566Z,6.40
2019-04-27T16:53:39.531Z,6.60
2019-04-27T16:56:14.218Z,6.60
2019-04-27T16:58:39.383Z,6.60
2019-04-27T17:01:12.218Z,6.60
2019-04-27T17:03:41.487Z,6.60
2019-04-27T17:06:09.987Z,6.70
2019-04-27T17:08:39.381Z,6.70
2019-04-27T17:11:13.030Z,6.90
2019-04-27T17:13:44.009Z,6.80
2019-04-27T17:16:14.331Z,6.80
2019-04-27T17:18:52.800Z,6.80
2019-04-27T17:21:23.185Z,6.80
2019-04-27T17:23:50.737Z,6.90
2019-04-27T17:26:21.886Z,6.90
2019-04-27T17:29:16.063Z,6.90
2019-04-27T17:31:41.235Z,6.90
2019-04-27T17:34:09.786Z,7.00
2019-04-27T17:36:38.495Z,7.00
2019-04-27T17:39:10.089Z,6.90
2019-04-27T17:41:42.180Z,6.90
2019-04-27T17:44:12.758Z,6.80
2019-04-27T17:46:42.733Z,6.70
2019-04-27T17:49:09.246Z,6.70
2019-04-27T17:51:40.672Z,6.70
2019-04-27T17:54:11.263Z,6.70
2019-04-27T17:56:48.262Z,6.50
2019-04-27T17:59:10.337Z,6.50
2019-04-27T18:01:38.961Z,6.50
2019-04-27T18:04:10.482Z,6.50
2019-04-27T18:06:39.045Z,6.50
2019-04-27T18:09:10.265Z,6.50
2019-04-27T18:11:38.698Z,6.50
2019-04-27T18:14:11.152Z,6.50
2019-04-27T18:16:39.001Z,6.50
2019-04-27T18:19:11.694Z,6.50
2019-04-27T18:21:42.575Z,6.50
2019-04-27T18:24:15.349Z,6.40
2019-04-27T18:27:03.307Z,6.40
2019-04-27T18:29:31.096Z,6.30
2019-04-27T18:31:59.623Z,6.30
2019-04-27T18:34:28.683Z,6.20
2019-04-27T18:36:57.248Z,6.20
2019-04-27T18:39:25.736Z,6.10
2019-04-27T18:41:54.498Z,6.10
2019-04-27T18:44:23.976Z,6.00
2019-04-27T18:46:53.583Z,6.10
2019-04-27T18:49:27.264Z,6.10
2019-04-27T18:52:06.504Z,6.10
2019-04-27T18:54:38.198Z,6.10
2019-04-27T18:57:05.813Z,6.20
2019-04-27T18:59:34.282Z,6.10
2019-04-27T19:02:02.733Z,6.20
2019-04-27T19:04:31.190Z,6.20
2019-04-27T19:07:00.132Z,6.10
2019-04-27T19:09:28.831Z,6.00
2019-04-27T19:11:57.268Z,6.00
2019-04-27T19:14:25.698Z,5.90
2019-04-27T19:16:54.192Z,5.80
2019-04-27T19:19:22.748Z,5.70
2019-04-27T19:21:51.167Z,5.70
2019-04-27T19:24:19.678Z,5.50
2019-04-27T19:26:52.544Z,5.60
2019-04-27T19:29:22.808Z,5.60
2019-04-27T19:31:52.958Z,5.60
2019-04-27T19:34:21.399Z,5.50
2019-04-27T19:36:49.838Z,5.50
2019-04-27T19:39:18.361Z,5.40
2019-04-27T19:41:58.830Z,5.40
2019-04-27T19:44:18.808Z,5.40
2019-04-27T19:46:49.089Z,5.40
2019-04-27T19:49:19.227Z,5.30
2019-04-27T19:51:47.923Z,5.30
2019-04-27T19:54:16.363Z,5.30
2019-04-27T19:56:44.787Z,5.30
2019-04-27T19:59:18.796Z,5.20
2019-04-27T20:01:49.155Z,5.20
2019-04-27T20:04:19.226Z,5.20
2019-04-27T20:06:48.494Z,5.20
2019-04-27T20:09:19.253Z,5.20
2019-04-27T20:11:47.792Z,5.20
2019-04-27T20:14:16.214Z,5.20
2019-04-27T20:16:44.687Z,5.20
2019-04-27T20:19:13.099Z,5.10
2019-04-27T20:21:41.549Z,5.10
2019-04-27T20:24:11.691Z,5.00
2019-04-27T20:26:40.227Z,5.00
2019-04-27T20:29:11.843Z,5.00
2019-04-27T20:31:41.087Z,5.00
2019-04-27T20:34:09.580Z,5.00
2019-04-27T20:36:38.029Z,5.00
2019-04-27T20:39:07.380Z,4.80
2019-04-27T20:41:35.811Z,4.80
2019-04-27T20:44:04.559Z,4.70
2019-04-27T20:46:33.003Z,4.60
2019-04-27T20:49:03.070Z,4.50
2019-04-27T20:51:53.017Z,4.50
2019-04-27T20:54:22.795Z,4.40
2019-04-27T20:56:53.575Z,4.20
2019-04-27T20:59:22.730Z,4.20
2019-04-27T21:01:51.161Z,4.10
2019-04-27T21:04:24.207Z,4.20
2019-04-27T21:06:57.110Z,4.20
2019-04-27T21:09:25.524Z,4.10
2019-04-27T21:11:53.984Z,4.10
2019-04-27T21:14:22.415Z,4.10
2019-04-27T21:16:51.704Z,4.00
2019-04-27T21:19:21.063Z,4.10
2019-04-27T21:21:51.071Z,4.20
2019-04-27T21:24:20.780Z,4.20
2019-04-27T21:26:51.243Z,4.20
2019-04-27T21:29:20.879Z,4.20
2019-04-27T21:31:49.571Z,4.30
2019-04-27T21:34:18.051Z,4.30
2019-04-27T21:36:46.487Z,4.30
2019-04-27T21:39:14.911Z,4.30
2019-04-27T21:41:43.418Z,4.30
2019-04-27T21:44:11.863Z,4.30
2019-04-27T21:46:41.718Z,4.30
2019-04-27T21:49:11.159Z,4.30
2019-04-27T21:51:58.287Z,4.30
2019-04-27T21:54:28.351Z,4.30
2019-04-27T21:56:56.772Z,4.20
2019-04-27T21:59:26.750Z,4.20
2019-04-27T22:01:57.901Z,4.10
2019-04-27T22:04:26.344Z,4.10
2019-04-27T22:06:54.845Z,4.00
2019-04-27T22:09:23.306Z,4.00
2019-04-27T22:11:51.783Z,3.90
2019-04-27T22:14:21.604Z,3.80
2019-04-27T22:16:51.828Z,3.80
2019-04-27T22:19:22.299Z,3.90
2019-04-27T22:21:52.093Z,3.90
2019-04-27T22:24:23.907Z,3.90
2019-04-27T22:26:52.330Z,3.90
2019-04-27T22:29:22.188Z,4.00
2019-04-27T22:31:51.639Z,3.90
2019-04-27T22:34:21.038Z,4.00
2019-04-27T22:36:49.579Z,4.00
2019-04-27T22:39:25.218Z,4.00
2019-04-27T22:41:55.268Z,4.00
2019-04-27T22:44:25.393Z,4.00
2019-04-27T22:46:54.890Z,4.10
2019-04-27T22:49:23.335Z,4.10
2019-04-27T22:51:53.298Z,4.10
2019-04-27T22:54:21.863Z,4.00
2019-04-27T22:56:51.981Z,4.00
2019-04-27T22:59:27.822Z,3.90
2019-04-27T23:02:06.467Z,3.80
2019-04-27T23:04:36.562Z,3.80
2019-04-27T23:07:04.988Z,3.80
2019-04-27T23:09:33.424Z,3.70
2019-04-27T23:12:03.552Z,3.60
2019-04-27T23:14:31.976Z,3.60
2019-04-27T23:17:04.887Z,3.60
2019-04-27T23:19:33.350Z,3.60
2019-04-27T23:22:01.775Z,3.50
2019-04-27T23:24:31.081Z,3.50
2019-04-27T23:27:03.422Z,3.50
2019-04-27T23:29:30.622Z,3.50
2019-04-27T23:32:04.788Z,3.40
2019-04-27T23:34:33.204Z,3.40
2019-04-27T23:37:01.638Z,3.40
2019-04-27T23:39:30.051Z,3.30
2019-04-27T23:41:58.503Z,3.30
2019-04-27T23:44:26.914Z,3.20
2019-04-27T23:46:55.423Z,3.20
2019-04-27T23:49:23.842Z,3.20
2019-04-27T23:51:53.942Z,3.20
2019-04-27T23:54:22.370Z,3.10
2019-04-27T23:56:51.865Z,3.10
2019-04-27T23:59:25.147Z,3.10
